sensor_id;sensor_type;location;lat;lon;timestamp;temperature;humidity
16867;DHT22;8550;52.596;13.320;2022-09-09T00:01:00;15.20;99.90
16867;DHT22;8550;52.596;13.320;2022-09-09T00:06:10;15.20;99.90
16867;DHT22;8550;52.596;13.320;2022-09-09T00:11:16;15.00;99.90
16867;DHT22;8550;52.596;13.320;2022-09-09T00:16:27;15.00;99.90
16867;DHT22;8550;52.596;13.320;2022-09-09T00:21:33;15.10;99.90
16867;DHT22;8550;52.596;13.320;2022-09-09T00:26:39;15.10;99.90
16867;DHT22;8550;52.596;13.320;2022-09-09T00:31:44;14.90;99.90
16867;DHT22;8550;52.596;13.320;2022-09-09T00:36:49;15.00;99.90
16867;DHT22;8550;52.596;13.320;2022-09-09T00:42:03;15.00;99.90
16867;DHT22;8550;52.596;13.320;2022-09-09T00:47:24;15.10;99.90
16867;DHT22;8550;52.596;13.320;2022-09-09T00:52:36;15.10;99.90
16867;DHT22;8550;52.596;13.320;2022-09-09T00:57:41;14.90;99.90
16867;DHT22;8550;52.596;13.320;2022-09-09T01:02:54;14.90;99.90
16867;DHT22;8550;52.596;13.320;2022-09-09T01:08:00;14.90;99.90
16867;DHT22;8550;52.596;13.320;2022-09-09T01:13:08;14.80;99.90
16867;DHT22;8550;52.596;13.320;2022-09-09T01:18:17;14.80;99.90
16867;DHT22;8550;52.596;13.320;2022-09-09T01:23:41;14.80;99.90
16867;DHT22;8550;52.596;13.320;2022-09-09T01:28:49;14.90;99.90
16867;DHT22;8550;52.596;13.320;2022-09-09T01:33:53;14.90;99.90
16867;DHT22;8550;52.596;13.320;2022-09-09T01:38:54;14.80;99.90
16867;DHT22;8550;52.596;13.320;2022-09-09T01:43:58;14.80;99.90
16867;DHT22;8550;52.596;13.320;2022-09-09T01:49:00;14.70;99.90
16867;DHT22;8550;52.596;13.320;2022-09-09T01:54:04;14.70;99.90
16867;DHT22;8550;52.596;13.320;2022-09-09T01:59:20;14.60;99.90
16867;DHT22;8550;52.596;13.320;2022-09-09T02:04:38;14.60;99.90
16867;DHT22;8550;52.596;13.320;2022-09-09T02:09:43;14.50;99.90
16867;DHT22;8550;52.596;13.320;2022-09-09T02:14:50;14.60;99.90
16867;DHT22;8550;52.596;13.320;2022-09-09T02:19:58;14.50;99.90
16867;DHT22;8550;52.596;13.320;2022-09-09T02:25:03;14.50;99.90
16867;DHT22;8550;52.596;13.320;2022-09-09T02:30:09;14.40;99.90
16867;DHT22;8550;52.596;13.320;2022-09-09T02:35:13;14.40;99.90
16867;DHT22;8550;52.596;13.320;2022-09-09T02:40:15;14.40;99.90
16867;DHT22;8550;52.596;13.320;2022-09-09T02:45:20;14.40;99.90
16867;DHT22;8550;52.596;13.320;2022-09-09T02:50:28;14.40;99.90
16867;DHT22;8550;52.596;13.320;2022-09-09T02:55:38;14.30;99.90
16867;DHT22;8550;52.596;13.320;2022-09-09T03:00:46;14.40;99.90
16867;DHT22;8550;52.596;13.320;2022-09-09T03:05:48;14.30;99.90
16867;DHT22;8550;52.596;13.320;2022-09-09T03:10:50;14.30;99.90
16867;DHT22;8550;52.596;13.320;2022-09-09T03:15:56;14.20;99.90
16867;DHT22;8550;52.596;13.320;2022-09-09T03:20:57;14.10;99.90
16867;DHT22;8550;52.596;13.320;2022-09-09T03:26:00;14.00;99.90
16867;DHT22;8550;52.596;13.320;2022-09-09T03:31:04;14.10;99.90
16867;DHT22;8550;52.596;13.320;2022-09-09T03:36:10;14.20;99.90
16867;DHT22;8550;52.596;13.320;2022-09-09T03:41:12;14.20;99.90
16867;DHT22;8550;52.596;13.320;2022-09-09T03:46:16;14.10;99.90
16867;DHT22;8550;52.596;13.320;2022-09-09T03:51:18;14.10;99.90
16867;DHT22;8550;52.596;13.320;2022-09-09T03:56:20;14.10;99.90
16867;DHT22;8550;52.596;13.320;2022-09-09T04:01:23;14.10;99.90
16867;DHT22;8550;52.596;13.320;2022-09-09T04:06:25;14.00;99.90
16867;DHT22;8550;52.596;13.320;2022-09-09T04:11:28;14.00;99.90
16867;DHT22;8550;52.596;13.320;2022-09-09T04:16:32;13.90;99.90
16867;DHT22;8550;52.596;13.320;2022-09-09T04:21:34;13.80;99.90
16867;DHT22;8550;52.596;13.320;2022-09-09T04:26:36;13.80;99.90
16867;DHT22;8550;52.596;13.320;2022-09-09T04:31:40;13.80;99.90
16867;DHT22;8550;52.596;13.320;2022-09-09T04:36:42;13.80;99.90
16867;DHT22;8550;52.596;13.320;2022-09-09T04:41:44;13.70;99.90
16867;DHT22;8550;52.596;13.320;2022-09-09T04:46:47;13.70;99.90
16867;DHT22;8550;52.596;13.320;2022-09-09T04:51:49;13.70;99.90
16867;DHT22;8550;52.596;13.320;2022-09-09T04:56:50;13.60;99.90
16867;DHT22;8550;52.596;13.320;2022-09-09T05:01:54;13.70;99.90
16867;DHT22;8550;52.596;13.320;2022-09-09T05:06:56;13.80;99.90
16867;DHT22;8550;52.596;13.320;2022-09-09T05:11:57;13.90;99.90
16867;DHT22;8550;52.596;13.320;2022-09-09T05:17:01;14.10;99.90
16867;DHT22;8550;52.596;13.320;2022-09-09T05:22:03;14.20;99.90
16867;DHT22;8550;52.596;13.320;2022-09-09T05:27:05;14.40;99.90
16867;DHT22;8550;52.596;13.320;2022-09-09T05:32:08;14.60;99.90
16867;DHT22;8550;52.596;13.320;2022-09-09T05:37:10;14.70;99.90
16867;DHT22;8550;52.596;13.320;2022-09-09T05:42:12;14.70;99.90
16867;DHT22;8550;52.596;13.320;2022-09-09T05:47:15;14.90;99.90
16867;DHT22;8550;52.596;13.320;2022-09-09T05:52:17;15.10;99.90
16867;DHT22;8550;52.596;13.320;2022-09-09T05:57:19;15.20;99.90
16867;DHT22;8550;52.596;13.320;2022-09-09T06:02:22;15.20;99.90
16867;DHT22;8550;52.596;13.320;2022-09-09T06:07:24;15.30;99.90
16867;DHT22;8550;52.596;13.320;2022-09-09T06:12:25;15.30;99.90
16867;DHT22;8550;52.596;13.320;2022-09-09T06:17:29;15.40;99.90
16867;DHT22;8550;52.596;13.320;2022-09-09T06:22:30;15.50;99.90
16867;DHT22;8550;52.596;13.320;2022-09-09T06:27:32;15.60;99.90
16867;DHT22;8550;52.596;13.320;2022-09-09T06:32:36;15.80;99.90
16867;DHT22;8550;52.596;13.320;2022-09-09T06:37:38;16.10;99.90
16867;DHT22;8550;52.596;13.320;2022-09-09T06:42:39;16.20;99.90
16867;DHT22;8550;52.596;13.320;2022-09-09T06:47:43;16.30;99.90
16867;DHT22;8550;52.596;13.320;2022-09-09T06:52:46;16.40;99.90
16867;DHT22;8550;52.596;13.320;2022-09-09T06:57:48;16.60;99.90
16867;DHT22;8550;52.596;13.320;2022-09-09T07:02:52;16.50;99.90
16867;DHT22;8550;52.596;13.320;2022-09-09T07:07:54;16.60;99.90
16867;DHT22;8550;52.596;13.320;2022-09-09T07:12:56;16.90;99.90
16867;DHT22;8550;52.596;13.320;2022-09-09T07:18:02;17.20;99.90
16867;DHT22;8550;52.596;13.320;2022-09-09T07:23:03;17.60;99.90
16867;DHT22;8550;52.596;13.320;2022-09-09T07:28:05;17.50;99.90
16867;DHT22;8550;52.596;13.320;2022-09-09T07:33:10;17.60;99.90
16867;DHT22;8550;52.596;13.320;2022-09-09T07:38:12;18.00;99.90
16867;DHT22;8550;52.596;13.320;2022-09-09T07:43:15;18.40;99.90
16867;DHT22;8550;52.596;13.320;2022-09-09T07:48:19;18.90;99.90
16867;DHT22;8550;52.596;13.320;2022-09-09T07:53:21;19.10;99.90
16867;DHT22;8550;52.596;13.320;2022-09-09T07:58:23;19.30;99.90
16867;DHT22;8550;52.596;13.320;2022-09-09T08:03:27;19.30;99.90
16867;DHT22;8550;52.596;13.320;2022-09-09T08:08:29;19.40;99.90
16867;DHT22;8550;52.596;13.320;2022-09-09T08:13:31;19.40;99.90
16867;DHT22;8550;52.596;13.320;2022-09-09T08:18:34;19.40;99.90
16867;DHT22;8550;52.596;13.320;2022-09-09T08:23:36;19.50;99.90
16867;DHT22;8550;52.596;13.320;2022-09-09T08:28:39;19.70;99.90
16867;DHT22;8550;52.596;13.320;2022-09-09T08:33:43;19.80;99.90
16867;DHT22;8550;52.596;13.320;2022-09-09T08:38:47;20.00;99.90
16867;DHT22;8550;52.596;13.320;2022-09-09T08:43:51;20.20;99.90
16867;DHT22;8550;52.596;13.320;2022-09-09T08:49:05;20.70;99.90
16867;DHT22;8550;52.596;13.320;2022-09-09T08:54:12;20.90;99.90
16867;DHT22;8550;52.596;13.320;2022-09-09T08:59:17;20.60;99.90
16867;DHT22;8550;52.596;13.320;2022-09-09T09:04:34;20.70;99.90
16867;DHT22;8550;52.596;13.320;2022-09-09T09:09:42;20.70;99.90
16867;DHT22;8550;52.596;13.320;2022-09-09T09:14:48;20.70;99.90
16867;DHT22;8550;52.596;13.320;2022-09-09T09:19:51;20.80;99.90
16867;DHT22;8550;52.596;13.320;2022-09-09T09:24:54;21.00;99.90
16867;DHT22;8550;52.596;13.320;2022-09-09T09:29:59;21.20;99.90
16867;DHT22;8550;52.596;13.320;2022-09-09T09:35:10;21.50;99.90
16867;DHT22;8550;52.596;13.320;2022-09-09T09:40:14;21.50;99.90
16867;DHT22;8550;52.596;13.320;2022-09-09T09:45:26;21.60;99.90
16867;DHT22;8550;52.596;13.320;2022-09-09T09:50:31;21.70;99.90
16867;DHT22;8550;52.596;13.320;2022-09-09T09:55:35;21.90;99.90
16867;DHT22;8550;52.596;13.320;2022-09-09T10:00:48;21.90;99.90
16867;DHT22;8550;52.596;13.320;2022-09-09T10:05:52;22.10;99.90
16867;DHT22;8550;52.596;13.320;2022-09-09T10:11:05;22.30;99.90
16867;DHT22;8550;52.596;13.320;2022-09-09T10:16:25;22.40;99.90
16867;DHT22;8550;52.596;13.320;2022-09-09T10:21:44;22.50;99.90
16867;DHT22;8550;52.596;13.320;2022-09-09T10:26:52;22.50;99.90
16867;DHT22;8550;52.596;13.320;2022-09-09T10:32:06;22.90;99.90
16867;DHT22;8550;52.596;13.320;2022-09-09T10:37:20;23.20;99.90
16867;DHT22;8550;52.596;13.320;2022-09-09T10:42:29;23.30;99.90
16867;DHT22;8550;52.596;13.320;2022-09-09T10:53:05;23.60;99.90
16867;DHT22;8550;52.596;13.320;2022-09-09T10:58:13;24.60;99.90
16867;DHT22;8550;52.596;13.320;2022-09-09T11:03:18;24.30;99.90
16867;DHT22;8550;52.596;13.320;2022-09-09T11:08:25;24.60;99.90
16867;DHT22;8550;52.596;13.320;2022-09-09T11:13:32;26.00;97.00
16867;DHT22;8550;52.596;13.320;2022-09-09T11:18:39;26.90;94.10
16867;DHT22;8550;52.596;13.320;2022-09-09T11:23:47;26.50;93.90
16867;DHT22;8550;52.596;13.320;2022-09-09T11:28:58;27.90;91.10
16867;DHT22;8550;52.596;13.320;2022-09-09T11:34:17;29.20;86.90
16867;DHT22;8550;52.596;13.320;2022-09-09T11:39:38;29.40;81.20
16867;DHT22;8550;52.596;13.320;2022-09-09T11:44:46;29.00;77.80
16867;DHT22;8550;52.596;13.320;2022-09-09T11:49:48;28.50;80.40
16867;DHT22;8550;52.596;13.320;2022-09-09T11:54:54;27.90;85.20
16867;DHT22;8550;52.596;13.320;2022-09-09T11:59:56;29.00;81.10
16867;DHT22;8550;52.596;13.320;2022-09-09T12:05:00;29.90;72.10
16867;DHT22;8550;52.596;13.320;2022-09-09T12:10:23;30.20;69.60
16867;DHT22;8550;52.596;13.320;2022-09-09T12:15:28;30.80;68.50
16867;DHT22;8550;52.596;13.320;2022-09-09T12:20:34;31.10;65.60
16867;DHT22;8550;52.596;13.320;2022-09-09T12:25:48;30.60;65.90
16867;DHT22;8550;52.596;13.320;2022-09-09T12:30:58;29.10;71.60
16867;DHT22;8550;52.596;13.320;2022-09-09T12:36:01;27.60;74.30
16867;DHT22;8550;52.596;13.320;2022-09-09T12:41:05;27.20;75.80
16867;DHT22;8550;52.596;13.320;2022-09-09T12:46:09;26.90;78.10
16867;DHT22;8550;52.596;13.320;2022-09-09T12:51:19;28.10;75.60
16867;DHT22;8550;52.596;13.320;2022-09-09T12:56:25;29.30;71.20
16867;DHT22;8550;52.596;13.320;2022-09-09T13:01:30;30.60;66.50
16867;DHT22;8550;52.596;13.320;2022-09-09T13:06:32;30.10;65.70
16867;DHT22;8550;52.596;13.320;2022-09-09T13:11:38;27.90;70.30
16867;DHT22;8550;52.596;13.320;2022-09-09T13:16:42;26.60;77.60
16867;DHT22;8550;52.596;13.320;2022-09-09T13:21:44;25.90;80.90
16867;DHT22;8550;52.596;13.320;2022-09-09T13:26:54;25.10;84.70
16867;DHT22;8550;52.596;13.320;2022-09-09T13:32:04;24.50;88.60
16867;DHT22;8550;52.596;13.320;2022-09-09T13:37:21;23.90;89.60
16867;DHT22;8550;52.596;13.320;2022-09-09T13:42:26;23.70;90.70
16867;DHT22;8550;52.596;13.320;2022-09-09T13:47:31;23.40;91.80
16867;DHT22;8550;52.596;13.320;2022-09-09T13:52:33;23.20;92.30
16867;DHT22;8550;52.596;13.320;2022-09-09T13:57:37;23.40;92.20
16867;DHT22;8550;52.596;13.320;2022-09-09T14:02:39;23.80;91.30
16867;DHT22;8550;52.596;13.320;2022-09-09T14:07:41;24.80;88.50
16867;DHT22;8550;52.596;13.320;2022-09-09T14:12:44;25.70;88.30
16867;DHT22;8550;52.596;13.320;2022-09-09T14:17:47;26.90;81.90
16867;DHT22;8550;52.596;13.320;2022-09-09T14:22:49;28.30;75.00
16867;DHT22;8550;52.596;13.320;2022-09-09T14:27:52;27.90;73.90
16867;DHT22;8550;52.596;13.320;2022-09-09T14:32:53;27.20;75.50
16867;DHT22;8550;52.596;13.320;2022-09-09T14:37:55;27.10;74.40
16867;DHT22;8550;52.596;13.320;2022-09-09T14:42:59;28.90;70.00
16867;DHT22;8550;52.596;13.320;2022-09-09T14:48:01;28.30;68.80
16867;DHT22;8550;52.596;13.320;2022-09-09T14:53:03;29.40;67.30
16867;DHT22;8550;52.596;13.320;2022-09-09T14:58:06;29.60;62.50
16867;DHT22;8550;52.596;13.320;2022-09-09T15:03:09;28.20;68.90
16867;DHT22;8550;52.596;13.320;2022-09-09T15:08:11;26.80;72.20
16867;DHT22;8550;52.596;13.320;2022-09-09T15:13:16;25.70;79.10
16867;DHT22;8550;52.596;13.320;2022-09-09T15:18:18;25.20;80.60
16867;DHT22;8550;52.596;13.320;2022-09-09T15:23:20;25.10;84.60
16867;DHT22;8550;52.596;13.320;2022-09-09T15:28:23;25.10;84.80
16867;DHT22;8550;52.596;13.320;2022-09-09T15:33:25;25.00;87.00
16867;DHT22;8550;52.596;13.320;2022-09-09T15:38:27;25.00;85.70
16867;DHT22;8550;52.596;13.320;2022-09-09T15:43:30;24.70;89.20
16867;DHT22;8550;52.596;13.320;2022-09-09T15:48:32;24.40;91.10
16867;DHT22;8550;52.596;13.320;2022-09-09T15:53:34;24.00;92.30
16867;DHT22;8550;52.596;13.320;2022-09-09T15:58:37;23.70;93.80
16867;DHT22;8550;52.596;13.320;2022-09-09T16:03:40;23.50;94.90
16867;DHT22;8550;52.596;13.320;2022-09-09T16:08:44;23.30;96.30
16867;DHT22;8550;52.596;13.320;2022-09-09T16:13:50;23.00;97.10
16867;DHT22;8550;52.596;13.320;2022-09-09T16:18:55;22.80;99.90
16867;DHT22;8550;52.596;13.320;2022-09-09T16:23:58;22.40;99.90
16867;DHT22;8550;52.596;13.320;2022-09-09T16:29:02;22.10;99.90
16867;DHT22;8550;52.596;13.320;2022-09-09T16:34:04;22.00;99.90
16867;DHT22;8550;52.596;13.320;2022-09-09T16:39:08;21.80;99.90
16867;DHT22;8550;52.596;13.320;2022-09-09T16:44:13;21.70;99.90
16867;DHT22;8550;52.596;13.320;2022-09-09T16:49:15;21.50;99.90
16867;DHT22;8550;52.596;13.320;2022-09-09T16:54:17;21.40;99.90
16867;DHT22;8550;52.596;13.320;2022-09-09T16:59:21;21.20;99.90
16867;DHT22;8550;52.596;13.320;2022-09-09T17:04:26;21.00;99.90
16867;DHT22;8550;52.596;13.320;2022-09-09T17:09:28;20.80;99.90
16867;DHT22;8550;52.596;13.320;2022-09-09T17:14:33;20.50;99.90
16867;DHT22;8550;52.596;13.320;2022-09-09T17:19:35;20.20;99.90
16867;DHT22;8550;52.596;13.320;2022-09-09T17:24:36;19.90;99.90
16867;DHT22;8550;52.596;13.320;2022-09-09T17:29:40;19.70;99.90
16867;DHT22;8550;52.596;13.320;2022-09-09T17:34:43;19.40;99.90
16867;DHT22;8550;52.596;13.320;2022-09-09T17:39:46;19.20;99.90
16867;DHT22;8550;52.596;13.320;2022-09-09T17:44:50;19.00;99.90
16867;DHT22;8550;52.596;13.320;2022-09-09T17:49:51;18.70;99.90
16867;DHT22;8550;52.596;13.320;2022-09-09T17:54:53;18.60;99.90
16867;DHT22;8550;52.596;13.320;2022-09-09T17:59:58;18.70;99.90
16867;DHT22;8550;52.596;13.320;2022-09-09T18:05:01;18.60;99.90
16867;DHT22;8550;52.596;13.320;2022-09-09T18:10:03;18.60;99.90
16867;DHT22;8550;52.596;13.320;2022-09-09T18:15:07;18.60;99.90
16867;DHT22;8550;52.596;13.320;2022-09-09T18:20:09;18.60;99.90
16867;DHT22;8550;52.596;13.320;2022-09-09T18:25:11;18.70;99.90
16867;DHT22;8550;52.596;13.320;2022-09-09T18:30:14;18.90;99.90
16867;DHT22;8550;52.596;13.320;2022-09-09T18:35:16;19.00;99.90
16867;DHT22;8550;52.596;13.320;2022-09-09T18:40:18;18.90;99.90
16867;DHT22;8550;52.596;13.320;2022-09-09T18:45:21;18.70;99.90
16867;DHT22;8550;52.596;13.320;2022-09-09T18:50:23;18.50;99.90
16867;DHT22;8550;52.596;13.320;2022-09-09T18:55:25;18.40;99.90
16867;DHT22;8550;52.596;13.320;2022-09-09T19:00:29;18.40;99.90
16867;DHT22;8550;52.596;13.320;2022-09-09T19:05:32;18.50;99.90
16867;DHT22;8550;52.596;13.320;2022-09-09T19:10:35;18.60;99.90
16867;DHT22;8550;52.596;13.320;2022-09-09T19:15:38;18.60;99.90
16867;DHT22;8550;52.596;13.320;2022-09-09T19:20:40;18.40;99.90
16867;DHT22;8550;52.596;13.320;2022-09-09T19:25:42;18.20;99.90
16867;DHT22;8550;52.596;13.320;2022-09-09T19:30:45;18.10;99.90
16867;DHT22;8550;52.596;13.320;2022-09-09T19:35:56;18.00;99.90
16867;DHT22;8550;52.596;13.320;2022-09-09T19:41:02;18.10;99.90
16867;DHT22;8550;52.596;13.320;2022-09-09T19:46:08;18.10;99.90
16867;DHT22;8550;52.596;13.320;2022-09-09T19:51:12;17.90;99.90
16867;DHT22;8550;52.596;13.320;2022-09-09T19:56:15;17.80;99.90
16867;DHT22;8550;52.596;13.320;2022-09-09T20:01:20;17.70;99.90
16867;DHT22;8550;52.596;13.320;2022-09-09T20:06:24;17.60;99.90
16867;DHT22;8550;52.596;13.320;2022-09-09T20:11:27;17.60;99.90
16867;DHT22;8550;52.596;13.320;2022-09-09T20:16:31;17.60;99.90
16867;DHT22;8550;52.596;13.320;2022-09-09T20:21:35;17.40;99.90
16867;DHT22;8550;52.596;13.320;2022-09-09T20:26:38;17.40;99.90
16867;DHT22;8550;52.596;13.320;2022-09-09T20:31:42;17.50;99.90
16867;DHT22;8550;52.596;13.320;2022-09-09T20:36:44;17.50;99.90
16867;DHT22;8550;52.596;13.320;2022-09-09T20:41:47;17.60;99.90
16867;DHT22;8550;52.596;13.320;2022-09-09T20:46:52;17.60;99.90
16867;DHT22;8550;52.596;13.320;2022-09-09T20:51:56;17.50;99.90
16867;DHT22;8550;52.596;13.320;2022-09-09T20:56:58;17.40;99.90
16867;DHT22;8550;52.596;13.320;2022-09-09T21:02:01;17.30;99.90
16867;DHT22;8550;52.596;13.320;2022-09-09T21:07:03;17.20;99.90
16867;DHT22;8550;52.596;13.320;2022-09-09T21:12:07;17.20;99.90
16867;DHT22;8550;52.596;13.320;2022-09-09T21:17:11;17.00;99.90
16867;DHT22;8550;52.596;13.320;2022-09-09T21:22:12;16.80;99.90
16867;DHT22;8550;52.596;13.320;2022-09-09T21:27:15;16.80;99.90
16867;DHT22;8550;52.596;13.320;2022-09-09T21:32:18;16.70;99.90
16867;DHT22;8550;52.596;13.320;2022-09-09T21:37:20;16.60;99.90
16867;DHT22;8550;52.596;13.320;2022-09-09T21:42:22;16.60;99.90
16867;DHT22;8550;52.596;13.320;2022-09-09T21:47:25;16.70;99.90
16867;DHT22;8550;52.596;13.320;2022-09-09T21:52:27;16.60;99.90
16867;DHT22;8550;52.596;13.320;2022-09-09T21:57:29;16.50;99.90
16867;DHT22;8550;52.596;13.320;2022-09-09T22:02:32;16.50;99.90
16867;DHT22;8550;52.596;13.320;2022-09-09T22:07:36;16.70;99.90
16867;DHT22;8550;52.596;13.320;2022-09-09T22:12:38;16.60;99.90
16867;DHT22;8550;52.596;13.320;2022-09-09T22:17:41;16.50;99.90
16867;DHT22;8550;52.596;13.320;2022-09-09T22:22:43;16.30;99.90
16867;DHT22;8550;52.596;13.320;2022-09-09T22:27:45;16.20;99.90
16867;DHT22;8550;52.596;13.320;2022-09-09T22:32:48;16.10;99.90
16867;DHT22;8550;52.596;13.320;2022-09-09T22:37:50;16.10;99.90
16867;DHT22;8550;52.596;13.320;2022-09-09T22:42:52;16.00;99.90
16867;DHT22;8550;52.596;13.320;2022-09-09T22:47:55;15.80;99.90
16867;DHT22;8550;52.596;13.320;2022-09-09T22:52:57;15.70;99.90
16867;DHT22;8550;52.596;13.320;2022-09-09T22:57:59;15.60;99.90
16867;DHT22;8550;52.596;13.320;2022-09-09T23:03:02;15.40;99.90
16867;DHT22;8550;52.596;13.320;2022-09-09T23:08:04;15.40;99.90
16867;DHT22;8550;52.596;13.320;2022-09-09T23:13:06;15.40;99.90
16867;DHT22;8550;52.596;13.320;2022-09-09T23:18:10;15.50;99.90
16867;DHT22;8550;52.596;13.320;2022-09-09T23:23:12;15.50;99.90
16867;DHT22;8550;52.596;13.320;2022-09-09T23:28:14;15.40;99.90
16867;DHT22;8550;52.596;13.320;2022-09-09T23:33:18;15.40;99.90
16867;DHT22;8550;52.596;13.320;2022-09-09T23:38:19;15.40;99.90
16867;DHT22;8550;52.596;13.320;2022-09-09T23:43:21;15.40;99.90
16867;DHT22;8550;52.596;13.320;2022-09-09T23:48:27;15.40;99.90
16867;DHT22;8550;52.596;13.320;2022-09-09T23:53:29;15.40;99.90
16867;DHT22;8550;52.596;13.320;2022-09-09T23:58:31;15.30;99.90
